Airfield :
LOGIN :

Register | Disclaimer

   EN    FR    IT 

 










Legend :    VFR   Marginal VFR   IFR   Intensive IFR   Very Intensive IFR
Visi :
Ceiling :
>= 8 km
>= 3000ft
5 to 8 km
1000 to 3000 ft
1500m to 5 km
500 to 1000 ft
800 to 1500m
200 to 500 ft
< 800m
< 200 ft
Symbols :   Thunderstorms  Fog  Heavy snow  Heavy precipitations  Wind > 20 kt
SIGMETs :     Misc.  Thunderstorms  Icing  Turbulence  Mountain Waves  Volcanic Ashes







- Airport Elevation : 1411 ft
- IATA code : SZG


LOWS - Salzburg

CURRENT METAR :
  • 200920Z VRB03KT 9999 FEW021 SCT120 18/13 Q1019 NOSIG

EXPIRED METARs :
  • 200850Z VRB03KT 9999 FEW014 SCT020 BKN300 16/12 Q1019 NOSIG
  • 200820Z 32003KT 230V020 9999 FEW014 SCT020 BKN120 16/11 Q1020 NOSIG
  • 200750Z VRB02KT 9999 FEW007 SCT012 BKN120 15/12 Q1020 NOSIG
  • 200720Z VRB02KT 9999 FEW007 SCT012 BKN120 15/12 Q1020 NOSIG
  • 200650Z VRB01KT 9999 FEW006 SCT012 BKN016 14/11 Q1020 NOSIG

TAF TAF LOWS
Valid from the 20 at 06:00 until the 21 at 06:00 UTC


200515Z 2006/2106 VRB02KT 9999 FEW050 BKN100 TX21/2013Z TN10/2103Z
TEMPO 2006/2008 FEW004 BKN009
BECMG 2006/2008 04007KT
TEMPO 2009/2018 06010G20KT
TEMPO 2012/2018 SHRA FEW040TCU BKN060
PROB30
TEMPO 2013/2018 TSRA FEW040CB BKN050
BECMG 2018/2020 15005KT CAVOK
No reported NOTAMs for that airfield.



MET'MAP, your aeronautical weather chart ! - Copyright ORBIFLY December 2007 - Disclaimer

ORBIFLY MET'MAP TEAM :

Programming & Development : Alexandra Zaïnal
Concept & Development : Baudouin d'Aumeries
Co-Development & Prog : Marc-Olivier Méhu
Technical & hardware support : Manuel Goepfert

Contact : metmap@orbifly.com




SOURCES & CREDITS :

   NOAA